createdAt,value
2023-04-25T00:02:16.117Z,58.50
2023-04-25T00:04:43.413Z,58.90
2023-04-25T00:07:10.641Z,59.10
2023-04-25T00:09:37.412Z,59.20
2023-04-25T00:12:04.362Z,59.30
2023-04-25T00:14:31.341Z,59.50
2023-04-25T00:16:58.860Z,59.10
2023-04-25T00:19:25.770Z,59.00
2023-04-25T00:21:52.478Z,59.30
2023-04-25T00:24:19.262Z,59.70
2023-04-25T00:26:45.961Z,59.30
2023-04-25T00:29:12.730Z,59.30
2023-04-25T00:31:39.436Z,59.70
2023-04-25T00:34:07.623Z,59.80
2023-04-25T00:36:34.314Z,59.90
2023-04-25T00:39:01.058Z,59.80
2023-04-25T00:41:28.175Z,59.80
2023-04-25T00:43:56.890Z,59.60
2023-04-25T00:46:23.545Z,59.50
2023-04-25T00:48:50.352Z,59.40
2023-04-25T00:51:23.745Z,59.40
2023-04-25T00:53:51.713Z,59.50
2023-04-25T00:56:19.071Z,59.60
2023-04-25T00:58:46.540Z,59.90
2023-04-25T01:01:14.128Z,59.90
2023-04-25T01:03:42.078Z,60.20
2023-04-25T01:06:10.971Z,60.20
2023-04-25T01:08:39.490Z,59.80
2023-04-25T01:11:07.006Z,59.60
2023-04-25T01:13:34.584Z,59.60
2023-04-25T01:16:02.937Z,59.50
2023-04-25T01:18:29.792Z,59.30
2023-04-25T01:20:57.239Z,59.20
2023-04-25T01:23:24.146Z,59.30
2023-04-25T01:25:51.924Z,59.20
2023-04-25T01:28:19.218Z,58.80
2023-04-25T01:30:47.104Z,58.60
2023-04-25T01:33:15.619Z,58.80
2023-04-25T01:35:42.455Z,58.80
2023-04-25T01:38:09.990Z,58.60
2023-04-25T01:40:39.780Z,58.40
2023-04-25T01:43:06.661Z,58.50
2023-04-25T01:45:34.097Z,58.50
2023-04-25T01:48:01.052Z,58.40
2023-04-25T01:50:27.915Z,58.40
2023-04-25T01:52:55.279Z,58.40
2023-04-25T01:55:22.135Z,58.10
2023-04-25T01:57:48.797Z,58.10
2023-04-25T02:00:15.759Z,58.20
2023-04-25T02:02:42.661Z,58.00
2023-04-25T02:05:09.680Z,57.70
2023-04-25T02:07:36.447Z,57.70
2023-04-25T02:10:03.278Z,57.80
2023-04-25T02:12:30.249Z,57.90
2023-04-25T02:14:56.963Z,57.80
2023-04-25T02:17:23.648Z,57.60
2023-04-25T02:54:11.208Z,57.30
2023-04-25T02:56:38.028Z,58.10
2023-04-25T02:59:04.702Z,58.40
2023-04-25T03:01:31.357Z,58.60
2023-04-25T03:03:58.097Z,58.70
2023-04-25T03:06:24.897Z,58.90
2023-04-25T03:08:51.557Z,58.90
2023-04-25T04:30:01.342Z,58.70
2023-04-25T04:32:28.557Z,60.00
2023-04-25T04:34:56.366Z,60.20
2023-04-25T04:37:23.716Z,60.30
2023-04-25T04:39:51.197Z,60.10
2023-04-25T04:49:41.745Z,59.90
2023-04-25T04:52:08.388Z,59.60
2023-04-25T04:54:36.559Z,60.00
2023-04-25T04:57:03.396Z,60.20
2023-04-25T04:59:30.053Z,60.10
2023-04-25T09:00:48.685Z,59.60
2023-04-25T09:03:16.514Z,50.50
2023-04-25T09:05:46.950Z,49.50
2023-04-25T09:08:13.773Z,49.30
2023-04-25T09:10:41.562Z,48.50
2023-04-25T09:13:13.961Z,47.10
2023-04-25T09:15:54.670Z,45.80
2023-04-25T09:18:30.259Z,45.40
2023-04-25T09:21:13.852Z,45.40
2023-04-25T09:23:49.440Z,44.70
2023-04-25T09:26:18.246Z,44.80
2023-04-25T10:41:15.674Z,44.90
2023-04-25T10:43:43.533Z,41.90
2023-04-25T10:46:17.500Z,42.70
2023-04-25T10:48:51.302Z,41.60
2023-04-25T10:51:23.855Z,42.90
2023-04-25T10:53:56.448Z,42.90
2023-04-25T10:56:40.714Z,41.70
2023-04-25T10:59:11.052Z,43.40
2023-04-25T11:01:45.287Z,44.60
2023-04-25T11:04:26.416Z,45.40
2023-04-25T11:07:06.941Z,46.40
2023-04-25T11:09:38.917Z,46.80
2023-04-25T11:44:24.592Z,47.40
2023-04-25T11:46:51.291Z,44.20
2023-04-25T11:49:22.149Z,44.40
2023-04-25T11:51:49.680Z,44.50
2023-04-25T11:54:16.856Z,43.10
2023-04-25T11:56:45.023Z,42.80
2023-04-25T11:59:13.137Z,43.70
2023-04-25T12:01:49.126Z,42.40
2023-04-25T12:04:17.083Z,42.00
2023-04-25T12:06:47.597Z,42.30
2023-04-25T12:09:16.719Z,41.10
2023-04-25T12:11:47.662Z,41.70
2023-04-25T12:14:29.814Z,42.20
2023-04-25T12:16:59.185Z,42.60
2023-04-25T12:19:27.013Z,42.20
2023-04-25T12:24:26.676Z,43.50
2023-04-25T12:27:04.336Z,43.00
2023-04-25T12:29:38.526Z,42.10
2023-04-25T12:32:17.859Z,41.80
2023-04-25T12:34:44.683Z,41.70
2023-04-25T12:37:11.565Z,41.80
2023-04-25T12:39:38.411Z,41.80
2023-04-25T12:42:07.614Z,43.50
2023-04-25T12:44:36.628Z,42.30
2023-04-25T12:47:04.158Z,42.10
2023-04-25T12:49:31.209Z,41.50
2023-04-25T12:51:58.267Z,41.30
2023-04-25T12:54:25.704Z,41.00
2023-04-25T12:56:52.495Z,39.70
2023-04-25T12:59:20.794Z,40.80
2023-04-25T13:01:47.931Z,38.50
2023-04-25T13:04:14.804Z,40.30
2023-04-25T13:06:41.603Z,40.80
2023-04-25T15:34:27.402Z,41.00
2023-04-25T15:36:54.175Z,35.40
2023-04-25T15:39:21.154Z,36.50
2023-04-25T15:41:48.502Z,35.60
2023-04-25T15:44:15.419Z,35.20
2023-04-25T15:46:42.198Z,35.50
2023-04-25T15:49:09.470Z,35.80
2023-04-25T15:51:36.458Z,36.00
2023-04-25T15:54:04.054Z,36.20
2023-04-25T15:56:30.926Z,36.30
2023-04-25T15:58:57.597Z,36.50
2023-04-25T16:01:26.184Z,36.40
2023-04-25T16:03:53.503Z,36.40
2023-04-25T16:06:20.591Z,38.90
2023-04-25T16:08:47.417Z,36.20
2023-04-25T16:11:14.827Z,36.50
2023-04-25T16:13:41.728Z,36.50
2023-04-25T16:16:08.629Z,35.90
2023-04-25T16:18:35.716Z,36.10
2023-04-25T16:21:03.495Z,36.40
2023-04-25T16:23:30.212Z,36.40
2023-04-25T16:25:57.165Z,37.00
2023-04-25T16:28:23.889Z,37.20
2023-04-25T16:30:50.636Z,37.50
2023-04-25T16:33:17.553Z,37.40
2023-04-25T16:35:44.444Z,37.30
2023-04-25T16:38:11.197Z,36.60
2023-04-25T16:40:38.070Z,36.40
2023-04-25T16:43:04.739Z,36.60
2023-04-25T16:45:31.398Z,36.90
2023-04-25T16:48:00.781Z,37.70
2023-04-25T16:50:27.620Z,36.90
2023-04-25T16:52:54.646Z,37.00
2023-04-25T16:55:21.443Z,37.50
2023-04-25T16:57:48.303Z,36.40
2023-04-25T17:00:15.935Z,36.30
2023-04-25T17:02:43.739Z,35.90
2023-04-25T17:05:10.751Z,36.20
2023-04-25T17:07:37.512Z,36.20
2023-04-25T17:10:04.699Z,36.30
2023-04-25T17:12:31.527Z,37.00
2023-04-25T17:15:00.202Z,36.90
2023-04-25T17:17:26.996Z,36.80
2023-04-25T17:19:53.731Z,38.30
2023-04-25T17:22:21.630Z,36.60
2023-04-25T17:44:40.209Z,36.40
2023-04-25T17:47:08.741Z,37.20
2023-04-25T17:49:35.892Z,37.50
2023-04-25T17:52:02.594Z,37.80
2023-04-25T17:54:29.582Z,37.60
2023-04-25T17:56:56.504Z,37.80
2023-04-25T17:59:23.259Z,37.80
2023-04-25T18:01:50.038Z,37.80
2023-04-25T18:04:17.663Z,38.10
2023-04-25T18:06:44.432Z,38.90
2023-04-25T18:09:17.451Z,38.40
2023-04-25T18:11:47.632Z,39.10
2023-04-25T18:14:15.377Z,39.20
2023-04-25T18:21:43.336Z,39.10
2023-04-25T18:24:12.321Z,39.80
2023-04-25T18:26:40.417Z,39.50
2023-04-25T18:29:11.998Z,39.70
2023-04-25T18:31:39.309Z,39.50
2023-04-25T18:34:06.098Z,39.80
2023-04-25T18:36:32.931Z,40.20
2023-04-25T18:39:08.712Z,40.40
2023-04-25T18:41:55.243Z,40.30
2023-04-25T18:44:27.967Z,40.10
2023-04-25T18:46:54.697Z,40.00
2023-04-25T18:49:21.426Z,40.10
2023-04-25T19:16:26.222Z,40.20
2023-04-25T19:18:55.286Z,41.50
2023-04-25T19:21:22.651Z,42.00
2023-04-25T19:23:49.517Z,42.40
2023-04-25T19:26:17.096Z,42.60
2023-04-25T19:28:47.330Z,42.40
2023-04-25T19:31:14.190Z,42.70
2023-04-25T19:33:42.274Z,43.30
2023-04-25T19:36:08.951Z,43.00
2023-04-25T19:38:35.840Z,43.20
2023-04-25T19:45:59.391Z,43.30
2023-04-25T19:48:26.497Z,43.60
2023-04-25T19:50:53.326Z,43.60
2023-04-25T19:53:20.136Z,43.90
2023-04-25T19:55:46.898Z,44.60
2023-04-25T19:58:14.496Z,44.70
2023-04-25T20:00:42.249Z,44.40
2023-04-25T20:03:10.751Z,44.60
2023-04-25T20:05:37.723Z,44.90
2023-04-25T20:08:04.761Z,44.30
2023-04-25T20:10:31.854Z,44.70
2023-04-25T20:12:58.599Z,44.30
2023-04-25T20:15:25.424Z,45.00
2023-04-25T20:17:52.230Z,45.20
2023-04-25T20:20:19.280Z,44.90
2023-04-25T20:25:13.516Z,44.80
2023-04-25T20:27:40.441Z,45.10
2023-04-25T20:30:08.696Z,45.50
2023-04-25T20:32:36.592Z,45.10
2023-04-25T20:35:07.255Z,44.90
2023-04-25T20:37:36.628Z,45.30
2023-04-25T20:40:06.694Z,45.50
2023-04-25T20:42:34.548Z,45.80
2023-04-25T20:45:01.262Z,45.70
2023-04-25T20:47:28.357Z,45.30
2023-04-25T20:49:55.177Z,45.40
2023-04-25T20:52:22.764Z,45.40
2023-04-25T20:54:50.622Z,45.40
2023-04-25T20:57:17.702Z,45.40
2023-04-25T20:59:44.881Z,45.60
2023-04-25T21:02:13.825Z,45.60
2023-04-25T21:04:40.752Z,45.50
2023-04-25T21:07:07.541Z,45.70
2023-04-25T21:09:34.224Z,45.80
2023-04-25T21:12:01.124Z,46.10
2023-04-25T21:14:27.887Z,46.30
2023-04-25T21:16:54.666Z,46.30
2023-04-25T21:19:21.474Z,46.10
2023-04-25T21:21:51.287Z,46.20
2023-04-25T21:24:18.208Z,46.40
2023-04-25T21:48:53.415Z,46.60
2023-04-25T21:51:20.908Z,46.80
2023-04-25T21:53:47.693Z,46.70
2023-04-25T21:56:14.391Z,46.70
2023-04-25T21:58:41.066Z,47.00
2023-04-25T22:01:07.779Z,46.70
2023-04-25T22:40:28.353Z,46.80
